createdAt,value
2023-09-23T00:00:47.335Z,18.47
2023-09-23T00:03:14.422Z,8.20
2023-09-23T00:05:41.757Z,15.37
2023-09-23T00:08:08.855Z,12.30
2023-09-23T00:10:37.593Z,7.20
2023-09-23T00:13:04.793Z,12.90
2023-09-23T00:15:31.779Z,9.83
2023-09-23T00:17:59.297Z,22.30
2023-09-23T00:20:28.765Z,11.17
2023-09-23T00:22:56.843Z,12.07
2023-09-23T00:25:24.173Z,11.30
2023-09-23T00:27:54.463Z,8.93
2023-09-23T00:30:23.283Z,11.60
2023-09-23T00:32:50.746Z,6.50
2023-09-23T00:35:19.324Z,7.03
2023-09-23T00:37:48.621Z,10.63
2023-09-23T00:40:18.469Z,11.33
2023-09-23T00:42:47.663Z,10.70
2023-09-23T00:45:15.799Z,13.60
2023-09-23T00:47:43.710Z,10.23
2023-09-23T00:50:17.994Z,7.13
2023-09-23T00:52:47.935Z,12.33
2023-09-23T00:55:16.646Z,9.23
2023-09-23T00:57:47.028Z,9.43
2023-09-23T01:00:24.111Z,15.00
2023-09-23T01:02:51.755Z,10.80
2023-09-23T01:05:19.560Z,11.73
2023-09-23T01:07:48.786Z,13.10
2023-09-23T01:10:17.450Z,8.90
2023-09-23T01:12:46.469Z,13.33
2023-09-23T01:15:13.748Z,6.23
2023-09-23T01:17:41.266Z,8.03
2023-09-23T01:20:09.801Z,11.13
2023-09-23T01:22:37.779Z,9.73
2023-09-23T01:25:06.015Z,11.50
2023-09-23T01:27:38.403Z,7.40
2023-09-23T01:30:06.882Z,9.70
2023-09-23T01:32:46.427Z,14.07
2023-09-23T01:35:14.628Z,9.10
2023-09-23T01:37:43.502Z,15.07
2023-09-23T01:40:15.364Z,7.37
2023-09-23T01:42:42.377Z,12.70
2023-09-23T01:45:10.886Z,13.00
2023-09-23T01:47:38.295Z,7.33
2023-09-23T01:50:06.711Z,12.10
2023-09-23T01:52:33.702Z,7.83
2023-09-23T01:55:01.051Z,6.47
2023-09-23T01:57:28.112Z,12.60
2023-09-23T01:59:55.105Z,14.60
2023-09-23T02:02:22.179Z,8.40
2023-09-23T02:04:49.363Z,7.17
2023-09-23T02:07:16.341Z,7.43
2023-09-23T02:09:43.302Z,8.43
2023-09-23T02:12:11.055Z,14.37
2023-09-23T02:14:38.027Z,12.73
2023-09-23T02:17:05.054Z,8.73
2023-09-23T02:19:32.126Z,12.50
2023-09-23T02:21:59.148Z,12.87
2023-09-23T02:24:26.120Z,7.33
2023-09-23T02:26:53.113Z,19.00
2023-09-23T02:29:22.812Z,6.00
2023-09-23T02:31:50.637Z,9.90
2023-09-23T02:34:18.282Z,15.67
2023-09-23T02:36:45.969Z,5.40
2023-09-23T02:39:16.601Z,5.57
2023-09-23T02:41:46.071Z,7.67
2023-09-23T02:44:19.487Z,11.57
2023-09-23T02:46:47.072Z,5.43
2023-09-23T02:49:14.103Z,5.93
2023-09-23T02:51:42.817Z,8.83
2023-09-23T02:54:10.024Z,5.10
2023-09-23T02:56:37.170Z,6.93
2023-09-23T02:59:11.554Z,4.67
2023-09-23T03:01:39.926Z,5.97
2023-09-23T03:04:17.221Z,5.30
2023-09-23T03:06:49.784Z,9.47
2023-09-23T03:09:20.551Z,6.23
2023-09-23T03:11:53.702Z,7.73
2023-09-23T03:14:23.488Z,4.40
2023-09-23T03:16:53.989Z,7.63
2023-09-23T03:19:25.603Z,4.20
2023-09-23T03:21:56.320Z,3.57
2023-09-23T03:24:23.257Z,5.37
2023-09-23T03:26:53.786Z,5.47
2023-09-23T03:29:20.939Z,5.00
2023-09-23T03:31:48.084Z,4.43
2023-09-23T03:34:15.191Z,9.30
2023-09-23T03:36:44.580Z,9.50
2023-09-23T03:39:11.882Z,8.13
2023-09-23T03:41:38.966Z,9.03
2023-09-23T03:44:06.156Z,5.00
2023-09-23T03:46:33.643Z,10.53
2023-09-23T03:49:00.980Z,4.27
2023-09-23T03:51:28.360Z,6.27
2023-09-23T03:53:56.629Z,4.00
2023-09-23T03:56:24.969Z,8.77
2023-09-23T03:58:53.341Z,5.13
2023-09-23T04:01:20.584Z,3.50
2023-09-23T04:03:47.648Z,10.47
2023-09-23T04:06:14.628Z,6.23
2023-09-23T04:08:41.725Z,6.93
2023-09-23T04:11:09.115Z,5.00
2023-09-23T04:13:36.261Z,6.83
2023-09-23T04:16:03.317Z,4.90
2023-09-23T04:18:31.212Z,4.83
2023-09-23T04:20:58.264Z,4.27
2023-09-23T04:23:25.395Z,4.27
2023-09-23T04:25:52.872Z,5.43
2023-09-23T04:28:20.310Z,3.03
2023-09-23T04:30:47.259Z,3.03
2023-09-23T04:33:14.405Z,4.93
2023-09-23T04:35:41.489Z,4.20
2023-09-23T04:38:10.630Z,2.50
2023-09-23T04:40:38.023Z,6.20
2023-09-23T04:43:05.426Z,3.33
2023-09-23T04:45:32.828Z,3.00
2023-09-23T04:48:01.532Z,10.10
2023-09-23T04:50:28.667Z,2.83
2023-09-23T04:52:55.660Z,3.40
2023-09-23T04:55:22.696Z,5.27
2023-09-23T04:57:49.655Z,2.83
2023-09-23T05:00:20.339Z,3.67
2023-09-23T05:02:50.435Z,2.83
2023-09-23T05:05:19.272Z,3.13
2023-09-23T05:07:46.418Z,6.23
2023-09-23T05:10:14.202Z,3.80
2023-09-23T05:12:41.549Z,4.27
2023-09-23T05:15:13.188Z,6.47
2023-09-23T05:17:40.171Z,11.20
2023-09-23T05:20:16.677Z,5.77
2023-09-23T05:22:43.864Z,4.50
2023-09-23T05:25:12.041Z,4.77
2023-09-23T05:27:39.504Z,4.80
2023-09-23T05:30:08.204Z,5.43
2023-09-23T05:32:35.752Z,3.73
2023-09-23T05:35:02.821Z,6.93
2023-09-23T05:37:30.340Z,5.13
2023-09-23T05:39:57.983Z,4.53
2023-09-23T05:42:26.381Z,2.90
2023-09-23T05:44:53.423Z,6.77
2023-09-23T05:47:20.661Z,3.13
2023-09-23T05:49:47.935Z,4.60
2023-09-23T05:52:15.386Z,2.60
2023-09-23T05:54:43.493Z,11.07
2023-09-23T05:57:10.703Z,4.87
2023-09-23T05:59:38.004Z,8.10
2023-09-23T06:02:09.026Z,5.33
2023-09-23T06:04:36.378Z,6.17
2023-09-23T06:07:05.652Z,9.53
2023-09-23T06:09:33.915Z,13.20
2023-09-23T06:14:43.813Z,2.60
2023-09-23T06:17:11.201Z,3.90
2023-09-23T06:19:38.603Z,6.90
2023-09-23T06:22:05.725Z,4.03
2023-09-23T06:24:33.030Z,3.07
2023-09-23T06:27:00.057Z,3.97
2023-09-23T06:32:09.810Z,3.33
2023-09-23T06:34:37.217Z,3.87
2023-09-23T06:37:04.541Z,4.57
2023-09-23T06:39:32.127Z,2.90
2023-09-23T06:41:59.420Z,3.83
2023-09-23T06:44:27.755Z,2.63
2023-09-23T06:46:57.715Z,2.63
2023-09-23T06:49:27.303Z,7.83
2023-09-23T06:51:54.378Z,8.00
2023-09-23T06:54:23.622Z,3.50
2023-09-23T06:56:51.227Z,3.53
2023-09-23T06:59:18.916Z,5.40
2023-09-23T07:04:28.520Z,6.47
2023-09-23T07:06:55.597Z,6.03
2023-09-23T07:09:22.631Z,3.67
2023-09-23T07:11:51.240Z,3.03
2023-09-23T07:14:18.211Z,2.87
2023-09-23T07:16:45.377Z,3.37
2023-09-23T07:19:13.912Z,8.27
2023-09-23T07:21:41.050Z,7.83
2023-09-23T07:24:10.941Z,5.27
2023-09-23T07:26:40.257Z,6.73
2023-09-23T07:29:07.660Z,2.50
2023-09-23T07:31:34.996Z,2.90
2023-09-23T07:34:02.277Z,2.23
2023-09-23T07:36:32.530Z,5.27
2023-09-23T07:38:59.735Z,3.47
2023-09-23T07:41:27.105Z,2.97
2023-09-23T07:43:54.418Z,2.47
2023-09-23T07:46:22.411Z,4.17
2023-09-23T07:48:49.482Z,6.23
2023-09-23T07:51:17.337Z,3.03
2023-09-23T07:56:30.850Z,4.57
2023-09-23T07:58:58.842Z,5.93
2023-09-23T08:01:25.875Z,2.87
2023-09-23T08:03:53.329Z,3.03
2023-09-23T08:06:22.147Z,3.70
2023-09-23T08:08:50.048Z,9.00
2023-09-23T08:11:19.872Z,1.73
2023-09-23T08:13:48.077Z,6.57
2023-09-23T08:16:16.034Z,4.03
2023-09-23T08:18:43.491Z,3.47
2023-09-23T08:21:11.912Z,6.87
2023-09-23T08:23:39.187Z,1.83
2023-09-23T08:26:06.916Z,3.40
2023-09-23T08:28:35.441Z,1.83
2023-09-23T08:31:06.497Z,5.67
2023-09-23T08:33:33.771Z,6.77
2023-09-23T08:36:01.495Z,1.67
2023-09-23T08:38:50.324Z,1.47
2023-09-23T08:44:29.149Z,2.50
2023-09-23T08:46:56.136Z,3.43
2023-09-23T08:49:23.212Z,2.70
2023-09-23T08:51:54.696Z,5.27
2023-09-23T08:54:28.528Z,4.83
2023-09-23T08:56:56.194Z,2.70
2023-09-23T08:59:23.834Z,2.00
2023-09-23T09:01:50.970Z,4.93
2023-09-23T09:04:18.030Z,3.63
2023-09-23T09:06:49.725Z,4.87
2023-09-23T09:09:22.192Z,1.10
2023-09-23T09:11:51.759Z,4.57
2023-09-23T09:14:26.051Z,3.13
2023-09-23T09:16:54.439Z,2.93
2023-09-23T09:19:21.755Z,2.77
2023-09-23T09:21:51.326Z,1.87
2023-09-23T09:24:18.475Z,1.73
2023-09-23T09:26:45.514Z,1.87
2023-09-23T09:29:13.421Z,4.57
2023-09-23T09:31:42.809Z,8.77
2023-09-23T09:34:12.216Z,3.83
2023-09-23T09:36:40.155Z,5.30
2023-09-23T09:39:09.242Z,1.43
2023-09-23T09:41:46.007Z,1.50
2023-09-23T09:44:14.690Z,2.27
2023-09-23T09:46:42.970Z,1.90
2023-09-23T09:49:10.909Z,2.07
2023-09-23T09:51:41.457Z,1.90
2023-09-23T09:54:10.098Z,2.37
2023-09-23T09:56:39.719Z,10.50
2023-09-23T09:59:10.320Z,1.63
2023-09-23T10:01:37.507Z,2.60
2023-09-23T10:04:11.134Z,2.77
2023-09-23T10:06:40.934Z,2.33
2023-09-23T10:09:14.777Z,3.37
2023-09-23T10:11:41.830Z,2.73
2023-09-23T10:14:15.629Z,4.20
2023-09-23T10:16:49.799Z,12.90
2023-09-23T10:19:19.743Z,2.60
2023-09-23T10:21:47.964Z,4.60
2023-09-23T10:24:21.341Z,3.50
2023-09-23T10:26:48.354Z,3.33
2023-09-23T10:29:15.338Z,2.50
2023-09-23T10:31:42.352Z,2.67
2023-09-23T10:34:10.631Z,3.83
2023-09-23T10:36:38.241Z,5.57
2023-09-23T10:39:06.502Z,3.37
2023-09-23T10:41:35.348Z,3.07
2023-09-23T10:44:03.172Z,3.27
2023-09-23T10:46:30.169Z,4.73
2023-09-23T10:48:57.150Z,3.00
2023-09-23T10:51:24.277Z,2.97
2023-09-23T10:53:51.644Z,2.77
2023-09-23T10:56:21.651Z,3.10
2023-09-23T10:58:51.399Z,2.83
2023-09-23T11:01:18.834Z,2.60
2023-09-23T11:03:47.834Z,3.43
2023-09-23T11:06:17.028Z,6.17
2023-09-23T11:08:45.508Z,3.13
2023-09-23T11:11:13.877Z,5.27
2023-09-23T11:13:41.057Z,5.20
2023-09-23T11:16:11.505Z,3.43
2023-09-23T11:18:38.587Z,3.67
2023-09-23T11:21:05.931Z,3.00
2023-09-23T11:23:33.205Z,2.83
2023-09-23T11:26:00.461Z,2.53
2023-09-23T11:28:28.646Z,2.43
2023-09-23T11:30:58.057Z,7.40
2023-09-23T11:33:25.890Z,3.27
2023-09-23T11:35:53.040Z,1.87
2023-09-23T11:38:20.966Z,5.83
2023-09-23T11:40:48.510Z,1.67
2023-09-23T11:43:16.156Z,2.60
2023-09-23T11:45:43.750Z,5.60
2023-09-23T11:48:11.166Z,3.63
2023-09-23T11:50:38.546Z,6.23
2023-09-23T11:53:05.735Z,9.57
2023-09-23T11:55:33.410Z,5.00
2023-09-23T11:58:00.544Z,3.17
2023-09-23T12:00:28.892Z,2.27
2023-09-23T12:02:56.351Z,1.93
2023-09-23T12:05:29.280Z,5.87
2023-09-23T12:07:58.932Z,2.13
2023-09-23T12:10:26.145Z,2.03
2023-09-23T12:12:53.244Z,3.20
2023-09-23T12:15:20.341Z,1.83
2023-09-23T12:17:47.532Z,2.47
2023-09-23T12:20:15.248Z,2.03
2023-09-23T12:22:42.467Z,3.17
2023-09-23T12:25:10.798Z,7.23
2023-09-23T12:27:37.874Z,3.47
2023-09-23T12:30:06.018Z,2.53
2023-09-23T12:32:33.673Z,8.83
2023-09-23T12:35:00.809Z,2.57
2023-09-23T12:37:28.341Z,3.70
2023-09-23T12:39:56.154Z,2.77
2023-09-23T12:42:23.324Z,3.10
2023-09-23T12:44:50.353Z,8.53
2023-09-23T12:47:17.474Z,2.50
2023-09-23T12:49:45.997Z,2.07
2023-09-23T12:52:13.090Z,2.47
2023-09-23T12:54:42.104Z,2.20
2023-09-23T12:57:09.291Z,1.87
2023-09-23T12:59:36.379Z,2.20
2023-09-23T13:02:03.502Z,3.00
2023-09-23T13:04:31.851Z,1.70
2023-09-23T13:07:01.677Z,1.30
2023-09-23T13:09:28.738Z,2.03
2023-09-23T13:11:57.024Z,2.23
2023-09-23T13:14:25.889Z,3.50
2023-09-23T13:16:53.021Z,2.60
2023-09-23T13:19:21.110Z,3.10
2023-09-23T13:21:47.839Z,3.03
2023-09-23T13:24:17.059Z,3.03
2023-09-23T13:26:44.492Z,2.13
2023-09-23T13:29:13.239Z,5.10
2023-09-23T13:31:42.831Z,3.80
2023-09-23T13:34:10.059Z,5.90
2023-09-23T13:36:37.060Z,6.70
2023-09-23T13:39:04.212Z,3.07
2023-09-23T13:41:32.952Z,2.43
2023-09-23T13:44:02.662Z,4.43
2023-09-23T13:46:30.396Z,1.27
2023-09-23T13:48:58.351Z,3.77
2023-09-23T13:51:25.126Z,4.67
2023-09-23T13:53:52.269Z,4.27
2023-09-23T13:56:19.363Z,2.37
2023-09-23T13:58:51.614Z,4.00
2023-09-23T14:01:19.963Z,3.63
2023-09-23T14:03:47.361Z,2.77
2023-09-23T14:06:14.388Z,4.67
2023-09-23T14:08:41.388Z,16.27
2023-09-23T14:11:08.547Z,6.13
2023-09-23T14:13:35.661Z,6.60
2023-09-23T14:16:02.814Z,2.37
2023-09-23T14:18:30.267Z,7.63
2023-09-23T14:20:57.994Z,4.00
2023-09-23T14:23:25.006Z,8.33
2023-09-23T14:25:51.991Z,3.87
2023-09-23T14:28:19.133Z,10.13
2023-09-23T14:30:46.774Z,10.07
2023-09-23T14:33:13.945Z,9.27
2023-09-23T14:35:43.497Z,2.93
2023-09-23T14:38:10.959Z,2.60
2023-09-23T14:40:37.967Z,4.27
2023-09-23T14:43:05.161Z,7.13
2023-09-23T14:45:31.885Z,3.60
2023-09-23T14:47:59.063Z,6.17
2023-09-23T14:50:26.102Z,5.63
2023-09-23T14:52:53.082Z,4.47
2023-09-23T14:55:21.883Z,4.43
2023-09-23T14:57:48.856Z,4.13
2023-09-23T15:00:16.203Z,6.23
2023-09-23T15:02:43.734Z,6.27
2023-09-23T15:05:11.193Z,3.80
2023-09-23T15:07:38.499Z,1.67
2023-09-23T15:10:06.126Z,13.60
2023-09-23T15:12:33.793Z,2.90
2023-09-23T15:15:00.875Z,19.40
2023-09-23T15:17:27.697Z,10.47
2023-09-23T15:19:54.771Z,6.13
2023-09-23T15:22:22.494Z,7.37
2023-09-23T15:24:49.214Z,7.93
2023-09-23T15:27:15.955Z,6.83
2023-09-23T15:29:45.426Z,10.80
2023-09-23T15:32:12.455Z,7.27
2023-09-23T15:34:39.554Z,5.00
2023-09-23T15:37:06.547Z,5.63
2023-09-23T15:39:33.932Z,7.53
2023-09-23T15:42:02.093Z,5.87
2023-09-23T15:44:29.156Z,4.90
2023-09-23T15:46:56.463Z,4.93
2023-09-23T15:49:24.411Z,5.20
2023-09-23T15:51:51.482Z,16.67
2023-09-23T15:54:18.406Z,6.17
2023-09-23T15:56:47.252Z,5.87
2023-09-23T15:59:14.276Z,9.80
2023-09-23T16:01:41.052Z,6.83
2023-09-23T16:04:08.712Z,13.43
2023-09-23T16:06:36.122Z,8.57
2023-09-23T16:09:03.513Z,8.23
2023-09-23T16:11:31.517Z,8.90
2023-09-23T16:13:58.608Z,10.13
2023-09-23T16:16:26.003Z,11.47
2023-09-23T16:18:53.060Z,5.83
2023-09-23T16:21:22.416Z,5.07
2023-09-23T16:23:49.537Z,5.97
2023-09-23T16:26:16.734Z,7.83
2023-09-23T16:28:44.276Z,4.70
2023-09-23T16:31:11.443Z,6.63
2023-09-23T16:33:38.520Z,10.20
2023-09-23T16:36:05.870Z,7.20
2023-09-23T16:38:33.295Z,4.77
2023-09-23T16:41:00.397Z,8.63
2023-09-23T16:43:27.872Z,6.10
2023-09-23T16:45:55.506Z,9.07
2023-09-23T16:48:22.746Z,6.67
2023-09-23T16:50:50.491Z,13.60
2023-09-23T16:53:17.557Z,10.53
2023-09-23T16:55:45.143Z,17.00
2023-09-23T16:58:12.394Z,11.43
2023-09-23T17:00:41.005Z,7.77
2023-09-23T17:03:08.248Z,9.87
2023-09-23T17:05:35.368Z,9.07
2023-09-23T17:08:02.647Z,7.27
2023-09-23T17:10:29.872Z,4.97
2023-09-23T17:12:57.215Z,11.53
2023-09-23T17:15:24.183Z,7.93
2023-09-23T17:17:51.499Z,6.37
2023-09-23T17:20:18.671Z,11.77
2023-09-23T17:22:46.069Z,9.63
2023-09-23T17:25:13.073Z,10.43
2023-09-23T17:27:40.222Z,16.47
2023-09-23T17:30:08.989Z,12.63
2023-09-23T17:32:36.541Z,20.10
2023-09-23T17:35:04.541Z,13.40
2023-09-23T17:37:31.997Z,12.67
2023-09-23T17:39:59.024Z,10.80
2023-09-23T17:42:26.298Z,8.37
2023-09-23T17:44:53.380Z,19.77
2023-09-23T17:47:21.006Z,13.13
2023-09-23T17:49:48.072Z,12.37
2023-09-23T17:52:15.182Z,15.50
2023-09-23T17:54:43.536Z,19.97
2023-09-23T17:57:10.726Z,6.60
2023-09-23T17:59:38.820Z,17.63
2023-09-23T18:02:06.098Z,12.23
2023-09-23T18:04:33.690Z,25.17
2023-09-23T18:07:00.972Z,8.47
2023-09-23T18:09:28.656Z,14.53
2023-09-23T18:11:55.723Z,11.07
2023-09-23T18:14:22.811Z,21.63
2023-09-23T18:16:49.919Z,13.80
2023-09-23T18:19:17.260Z,11.67
2023-09-23T18:21:45.236Z,14.77
2023-09-23T18:24:12.409Z,14.33
2023-09-23T18:26:40.018Z,15.13
2023-09-23T18:29:07.253Z,11.93
2023-09-23T18:31:34.424Z,11.67
2023-09-23T18:34:01.913Z,16.63
2023-09-23T18:36:29.118Z,9.53
2023-09-23T18:38:56.549Z,15.27
2023-09-23T18:41:23.643Z,17.30
2023-09-23T18:43:50.724Z,11.73
2023-09-23T18:46:19.280Z,18.70
2023-09-23T18:48:46.533Z,12.73
2023-09-23T18:51:13.897Z,19.80
2023-09-23T18:53:43.726Z,15.60
2023-09-23T18:56:11.415Z,12.50
2023-09-23T18:58:38.565Z,20.97
2023-09-23T19:01:05.876Z,13.03
2023-09-23T19:03:33.089Z,15.77
2023-09-23T19:06:00.354Z,11.50
2023-09-23T19:08:27.600Z,13.07
2023-09-23T19:10:54.678Z,13.63
2023-09-23T19:13:22.292Z,15.90
2023-09-23T19:15:51.095Z,14.73
2023-09-23T19:18:18.729Z,15.03
2023-09-23T19:20:45.892Z,18.80
2023-09-23T19:23:15.035Z,16.60
2023-09-23T19:25:42.341Z,20.70
2023-09-23T19:28:09.525Z,23.03
2023-09-23T19:30:37.045Z,15.27
2023-09-23T19:33:04.158Z,11.37
2023-09-23T19:35:31.895Z,16.73
2023-09-23T19:37:58.992Z,20.73
2023-09-23T19:40:26.032Z,19.57
2023-09-23T19:42:53.189Z,19.87
2023-09-23T19:45:20.597Z,23.20
2023-09-23T19:47:48.341Z,24.73
2023-09-23T19:50:45.486Z,22.37
2023-09-23T19:53:22.729Z,26.63
2023-09-23T19:55:50.280Z,24.53
2023-09-23T19:58:19.134Z,22.17
2023-09-23T20:00:46.444Z,19.17
2023-09-23T20:03:17.471Z,17.87
2023-09-23T20:05:46.355Z,18.37
2023-09-23T20:08:14.134Z,19.47
2023-09-23T20:10:41.308Z,21.87
2023-09-23T20:13:13.836Z,15.40
2023-09-23T20:15:41.658Z,21.97
2023-09-23T20:18:10.047Z,14.70
2023-09-23T20:20:37.743Z,23.80
2023-09-23T20:23:04.952Z,15.63
2023-09-23T20:25:32.112Z,17.33
2023-09-23T20:27:59.221Z,16.77
2023-09-23T20:30:27.199Z,15.20
2023-09-23T20:32:54.509Z,30.97
2023-09-23T20:35:25.516Z,14.17
2023-09-23T20:38:18.173Z,12.13
2023-09-23T20:40:47.148Z,12.60
2023-09-23T20:43:14.453Z,12.17
2023-09-23T20:45:42.220Z,20.97
2023-09-23T20:48:09.836Z,12.63
2023-09-23T20:50:38.557Z,14.13
2023-09-23T20:53:07.388Z,21.37
2023-09-23T20:55:34.648Z,17.27
2023-09-23T20:58:06.444Z,19.67
2023-09-23T21:00:35.389Z,14.77
2023-09-23T21:03:02.742Z,18.60
2023-09-23T21:05:30.056Z,14.60
2023-09-23T21:07:57.212Z,13.90
2023-09-23T21:10:24.852Z,13.57
2023-09-23T21:12:52.138Z,18.33
2023-09-23T21:15:19.306Z,15.63
2023-09-23T21:17:46.772Z,20.03
2023-09-23T21:20:15.191Z,14.67
2023-09-23T21:22:42.405Z,16.33
2023-09-23T21:25:10.654Z,19.33
2023-09-23T21:27:38.653Z,18.07
2023-09-23T21:30:07.099Z,16.87
2023-09-23T21:32:34.479Z,22.07
2023-09-23T21:35:02.433Z,22.60
2023-09-23T21:37:29.520Z,23.40
2023-09-23T21:39:56.605Z,16.93
2023-09-23T21:42:24.764Z,18.50
2023-09-23T21:44:53.948Z,14.87
2023-09-23T21:47:21.093Z,16.43
2023-09-23T21:49:48.211Z,16.17
2023-09-23T21:52:15.511Z,18.53
2023-09-23T21:54:42.552Z,22.43
2023-09-23T21:57:10.647Z,19.90
2023-09-23T21:59:38.471Z,19.00
2023-09-23T22:02:07.378Z,11.93
2023-09-23T22:04:34.458Z,14.40
2023-09-23T22:07:01.469Z,21.37
2023-09-23T22:09:28.734Z,10.03
2023-09-23T22:11:57.183Z,14.30
2023-09-23T22:14:27.031Z,16.70
2023-09-23T22:16:55.325Z,18.83
2023-09-23T22:19:23.660Z,18.77
2023-09-23T22:21:51.914Z,17.47
2023-09-23T22:24:19.214Z,13.63
2023-09-23T22:26:46.519Z,21.83
2023-09-23T22:29:13.525Z,11.67
2023-09-23T22:31:40.822Z,10.27
2023-09-23T22:34:08.382Z,17.73
2023-09-23T22:36:36.006Z,16.47
2023-09-23T22:39:03.265Z,13.50
2023-09-23T22:41:31.759Z,20.13
2023-09-23T22:43:59.623Z,21.27
2023-09-23T22:46:26.815Z,17.87
2023-09-23T22:48:54.022Z,16.87
2023-09-23T22:51:21.163Z,13.80
2023-09-23T22:53:50.319Z,16.70
2023-09-23T22:56:17.863Z,27.30
2023-09-23T22:58:47.127Z,16.07
2023-09-23T23:01:14.620Z,11.87
2023-09-23T23:03:41.744Z,12.07
2023-09-23T23:06:09.195Z,17.13
2023-09-23T23:08:36.861Z,19.53
2023-09-23T23:11:08.132Z,10.10
2023-09-23T23:13:36.378Z,12.17
2023-09-23T23:16:05.821Z,20.20
2023-09-23T23:18:34.447Z,14.30
2023-09-23T23:21:02.317Z,9.90
2023-09-23T23:23:30.622Z,18.60
2023-09-23T23:25:59.400Z,7.73
2023-09-23T23:28:27.698Z,12.77
2023-09-23T23:30:54.864Z,10.67
2023-09-23T23:33:22.324Z,11.30
2023-09-23T23:35:51.666Z,17.80
2023-09-23T23:38:19.351Z,8.17
2023-09-23T23:40:46.351Z,16.07
2023-09-23T23:43:13.860Z,16.20
2023-09-23T23:45:41.213Z,15.37
2023-09-23T23:48:08.489Z,10.03
2023-09-23T23:50:35.615Z,8.47
2023-09-23T23:53:03.170Z,14.77
2023-09-23T23:55:32.827Z,14.47
2023-09-23T23:57:59.790Z,11.33
